Aérodrome :







RETROUVEZ-NOUS SUR...

 
LOGIN :

S'inscrire | Disclaimer

   EN    FR    IT 

 









Légende :    VFR   VFR Marginal   IFR   IFR Intensif   IFR Très Intensif
Visi : 
Plafond : 
>= 8 km
>= 3000ft
5 à 8 km
1000 à 3000 ft
1500m à 5 km
500 à 1000 ft
800 à 1500m
200 à 500 ft
< 800m
< 200 ft
Symboles :   Orages  Brouillard  Fortes neiges  Fortes précipitations  Vent > 20 kt






- Altitude de l'aérodrome : 39 ft
- Code IATA : YNA


CYNA - Natashquan

DERNIER METAR :
  • 020600Z AUTO 07015G20KT 9SM BKN060 BKN150 04/02 A3009 RMK SLP190

METARs EXPIRÉS :
  • 020500Z AUTO 07015G21KT 9SM OVC065 04/03 A3009 RMK SLP192
  • 020400Z AUTO 07013G19KT 9SM OVC065 04/03 A3009 RMK SLP191

TAF TAF CYNA
Valide du 02 à 02h jusqu'au 02 à 14h UTC


020138Z 0202/0214 07015KT 6SM BR SCT010 OVC030
TEMPO 0202/0212 21/2SM -DZ -RA BR BKN008 OVC020
FM021200 08015G25KT 6SM BR OVC010
TEMPO 0212/0214 2SM -DZ -RA BR OVC007 RMK FCST BASED ON AUTO OBS. NXT FCST BY 020800Z



MET'MAP, la Météo Aéronautique d'un coup d'oeil ! - Copyright ORBIFLY Décembre 2007 - Disclaimer

ORBIFLY MET'MAP TEAM :

Programmation & Développement : Alexandra Zaïnal
Sur une idée originale de : Baudouin d'Aumeries
Assistance à la programmation : Marc-Olivier Méhu
Soutien technique & logistique : Manuel Goepfert

Contact : metmap@orbifly.com




SOURCES & CREDITS :

   NOAA